WEATHER DATA

YESTERDAY
Time Temp. Dewp. Hum. Bar.
00:03 8.5 5.1 79 1016.2
00:12 8.5 5.1 79 1016.2
00:23 8.4 5.2 80 1016.2
00:33 8.2 5 80 1016.1
00:43 7.7 4.7 81 1015.8
00:53 7.6 4.9 83 1015.8
01:03 7.4 4.7 83 1015.8
01:13 7.3 4.8 84 1015.9
01:23 7.4 5 85 1016
01:34 7.6 5.2 85 1015.8
01:43 7.6 5.1 84 1015.7
01:53 7.7 5.2 84 1015.7
02:04 7.7 5.2 84 1015.7
02:14 7.6 5.1 84 1015.8
02:24 7.6 5.1 84 1015.8
02:33 7.7 5.2 84 1015.8
02:44 7.7 5.2 84 1015.6
02:54 7.6 5.1 84 1015.5
03:04 7.5 5 84 1015.4
03:14 7.4 4.9 84 1015.3
03:24 7.4 5 85 1015.2
03:34 7.4 5 85 1015.1
03:44 7.5 5.1 85 1015
03:55 7.5 5.1 85 1014.9
04:04 7.5 5.1 85 1014.8
04:14 7.6 5.2 85 1014.9
04:25 7.7 5.3 85 1014.8
04:35 7.7 5.3 85 1014.9
04:45 7.8 5.4 85 1015
04:54 7.9 5.5 85 1015
05:05 7.9 5.5 85 1014.9
05:15 7.9 5.5 85 1015
05:25 8 5.6 85 1015
05:35 8 5.6 85 1014.9
05:45 8 5.6 85 1014.8
05:55 8 5.6 85 1014.8
06:05 8.1 5.7 85 1014.8
06:16 8 5.6 85 1014.8
06:26 8 5.6 85 1014.8
06:35 8 5.6 85 1014.8
06:46 8 5.6 85 1014.8
06:56 8 5.6 85 1014.8
07:06 8 5.6 85 1014.9
07:16 8.2 5.8 85 1014.9
07:26 8.2 5.8 85 1015
07:36 8.1 5.7 85 1015
07:46 8 5.6 85 1014.9
07:56 8 5.6 85 1014.9
08:06 8 5.6 85 1014.8
08:16 7.9 5.5 85 1014.8
08:26 7.9 5.5 85 1014.9
08:37 8 5.6 85 1014.9
08:56 8 5.6 85 1014.9
09:06 8.1 5.6 84 1015
09:17 8.2 5.5 83 1014.9
09:27 8.3 5.6 83 1014.9
09:36 8.4 5.5 82 1014.8
09:47 8.4 5.5 82 1015
09:57 8.4 5.3 81 1014.9
10:07 8.4 5.3 81 1014.8
10:17 8.5 5.3 80 1014.7
10:27 8.4 5.2 80 1014.7
10:37 8.5 5.3 80 1014.6
10:47 8.5 5.3 80 1014.6
10:58 8.5 5.1 79 1014.5
11:07 8.5 5.1 79 1013.4
12:48 8.8 5 77 1013.1
12:57 8.9 5.3 78 1013
13:07 8.9 5.3 78 1012.8
13:18 8.8 5.2 78 1012.6
13:28 8.9 5.3 78 1012.5
13:33 8.9 5.3 78 1012.5
13:48 9 5.4 78 1012.3
13:58 9.1 5.3 77 1012.3
14:08 9.2 5.4 77 1012.2
14:18 9.1 5.5 78 1012.1
14:29 9.1 5.5 78 1012
14:39 9.1 5.5 78 1011.8
14:48 9.1 5.5 78 1011.9
14:58 9.1 5.5 78 1011.8
15:09 9.2 5.6 78 1011.7
15:19 9.2 5.6 78 1011.6
15:28 9.3 5.5 77 1011.6
15:39 9.3 5.5 77 1011.6
15:49 9.3 5.5 77 1011.6
15:59 9.3 5.3 76 1011.5
16:19 9.2 5.2 76 1011.3
16:29 9.2 5.4 77 1011.4
16:39 9.2 5.2 76 1011.3
16:50 9.1 5.1 76 1011.2
17:00 9.1 5.1 76 1011
17:09 9 5 76 1010.8
17:19 9 5.2 77 1010.7
17:30 8.9 5.1 77 1010.6
17:40 8.9 5.3 78 1010.5
17:49 8.8 5.2 78 1010.4
18:00 8.8 5.2 78 1010.5
18:10 8.8 5.2 78 1010.3
18:30 8.8 5.2 78 1010.1
18:40 8.7 5.1 78 1010.1
18:50 8.7 4.9 77 1010
19:00 8.7 4.9 77 1009.9
19:11 8.6 4.8 77 1009.8
19:21 8.6 5 78 1009.7
19:30 8.6 5 78 1009.6
19:40 8.5 4.9 78 1009.5
19:51 8.5 4.9 78 1009.4
20:01 8.5 4.9 78 1009.4
20:11 8.6 5 78 1009.3
20:21 8.5 4.7 77 1009.2
20:31 8.5 4.7 77 1009.2
20:41 8.5 4.7 77 1009.1
20:51 8.4 4.6 77 1009.1
21:01 8.3 4.5 77 1009.1
21:11 8.2 4.4 77 1009.1
21:21 8 4.4 78 1009.2
21:32 7.9 4.3 78 1009.2
21:42 8 4.4 78 1009.2
21:52 8 4.2 77 1009.2
22:01 8 4.2 77 1009.1
22:12 8 4.2 77 1009
22:22 7.9 4.1 77 1009
22:32 7.8 4 77 1008.9
22:42 7.8 4 77 1008.7
22:52 7.8 4 77 1008.7
23:02 7.7 3.7 76 1008.5
23:12 7.6 3.6 76 1008.4
23:23 7.5 3.5 76 1008.4
23:32 7.4 3.6 77 1008.3
23:42 7.1 3.3 77 1008.1
23:53 6.8 3.2 78 1008.1

DAY STATISTIC

2018-11-18
TEMPERATURE
AVERAGE
8.3
HIGH
9.3
15:28
LOW
6.8
23:53
PRESSURE
AVERAGE
1012.8
HIGH
1016.2
00:03
LOW
1008.1
23:42
DEWPOINT
AVERAGE
5.1
HIGH
5.8
07:16
LOW
3.2
23:53
HUMIDITY
AVERAGE
81
HIGH
85
01:23
LOW
76
15:59
TEMPERATURE (°C)
LOW
6.8
HIGH
9.3
AVERAGE
8.3
PRESSURE (hpa)
LOW
1008.1
HIGH
1016.2
AVERAGE
1012.8
DEVICE